Terminal Aerodrome Forecast
Issued by NWS Charleston, WV

Current Version | Previous Version | Text Only | Print | Product List | Glossary Off
Versions: 1 2 3 4 5 6 7 8 9 10 11 12 13 14 15 16 17 18 19 20 21 22

000
FTUS41 KRLX 141733
TAFBKW
TAF
KBKW 141733Z 1418/1518 15004KT 6SM -SHRA OVC015
     FM142000 15004KT P6SM OVC035
     FM150600 17004KT 4SM BR OVC025
     FM150900 VRB03KT 3SM BR BKN009
     FM151400 25004KT P6SM BKN015
     FM151600 27004KT P6SM BKN020=

USA.gov is the U.S. government's official web portal to all federal, state and local government web resources and services.